Time;durP1;ratioP1;P1;durP2;ratioP2;P2;SDS_P1;SDS_P2;PMS_P1;PMS_P2;Temp;Humidity;BMP_temperature;BMP_pressure;BME280_temperature;BME280_humidity;BME280_pressure;Samples;Min_cycle;Max_cycle;Signal;HPM_P1;HPM_P2
2023/03/01 00:01:47;;;;;;;10.90;5.23;;;;;;;-4.01;100.00;102112.38;4993575;28;20476;-71
2023/03/01 00:04:13;;;;;;;11.03;4.63;;;;;;;-4.05;99.04;102110.34;4993642;28;20030;-71
2023/03/01 00:06:39;;;;;;;10.37;4.57;;;;;;;-4.20;98.45;102109.13;4993405;28;20053;-71
2023/03/01 00:09:05;;;;;;;11.43;4.63;;;;;;;-4.26;98.42;102113.81;4993173;28;20077;-71
2023/03/01 00:11:32;;;;;;;17.03;5.53;;;;;;;-4.29;98.86;102106.75;4993411;28;20037;-71
2023/03/01 00:14:00;;;;;;;12.27;5.53;;;;;;;-4.25;99.50;102105.28;4993350;28;20042;-71
2023/03/01 00:16:35;;;;;;;13.43;6.00;;;;;;;-4.21;100.00;102087.63;4993290;28;20038;-71
2023/03/01 00:19:01;;;;;;;11.40;5.03;;;;;;;-4.18;100.00;102082.69;4990238;28;20504;-71
2023/03/01 00:21:27;;;;;;;12.40;5.07;;;;;;;-4.21;99.08;102086.72;4993008;28;20082;-71
2023/03/01 00:23:53;;;;;;;17.00;5.50;;;;;;;-4.27;99.12;102084.56;4993155;28;20113;-71
2023/03/01 00:26:19;;;;;;;13.13;4.97;;;;;;;-4.32;99.65;102097.84;4994663;28;20042;-71
2023/03/01 00:28:45;;;;;;;15.30;5.97;;;;;;;-4.32;99.88;102087.53;4996339;28;20084;-71
2023/03/01 00:31:13;;;;;;;10.87;5.33;;;;;;;-4.42;98.20;102088.50;4991608;28;20038;-71
2023/03/01 00:33:39;;;;;;;15.50;6.00;;;;;;;-4.52;100.00;102079.16;4994637;28;20030;-71
2023/03/01 00:36:05;;;;;;;14.13;5.80;;;;;;;-4.51;100.00;102086.09;5001329;28;20376;-71
2023/03/01 00:38:34;;;;;;;11.80;5.87;;;;;;;-4.53;100.00;102082.50;4991587;28;20136;-71
2023/03/01 00:41:05;;;;;;;11.27;5.10;;;;;;;-4.56;100.00;102084.81;4992595;28;20042;-71
2023/03/01 00:43:30;;;;;;;14.00;5.30;;;;;;;-4.56;100.00;102076.19;4991354;28;20034;-71
2023/03/01 00:45:56;;;;;;;13.50;5.73;;;;;;;-4.59;100.00;102071.69;4988955;28;20034;-71
2023/03/01 00:48:21;;;;;;;11.97;5.57;;;;;;;-4.55;100.00;102070.28;4992746;28;20069;-71
2023/03/01 00:50:46;;;;;;;12.90;5.43;;;;;;;-4.54;100.00;102075.53;4992347;28;20030;-71
2023/03/01 00:53:12;;;;;;;13.93;5.87;;;;;;;-4.58;100.00;102077.78;4992635;28;20116;-71
2023/03/01 00:55:37;;;;;;;14.37;7.00;;;;;;;-4.55;100.00;102073.75;4992644;28;20038;-71
2023/03/01 00:58:02;;;;;;;13.83;5.40;;;;;;;-4.53;100.00;102066.13;4992493;28;20451;-71
2023/03/01 01:00:27;;;;;;;9.40;4.60;;;;;;;-4.56;100.00;102065.88;4992291;28;20097;-71
2023/03/01 01:02:53;;;;;;;14.27;5.87;;;;;;;-4.65;100.00;102071.22;4992375;28;20456;-71
2023/03/01 01:05:20;;;;;;;13.60;6.40;;;;;;;-4.70;100.00;102062.22;4992354;28;20046;-71
2023/03/01 01:07:46;;;;;;;13.43;6.33;;;;;;;-4.78;100.00;102063.31;4992381;28;20053;-71
2023/03/01 01:10:16;;;;;;;12.53;5.27;;;;;;;-4.76;100.00;102069.47;4990852;28;20038;-71
2023/03/01 01:12:46;;;;;;;13.33;5.60;;;;;;;-4.76;100.00;102065.22;4998901;28;20030;-71
2023/03/01 01:15:14;;;;;;;12.63;5.03;;;;;;;-4.78;100.00;102068.44;4999601;28;20034;-71
2023/03/01 01:17:40;;;;;;;10.03;4.77;;;;;;;-4.81;100.00;102069.09;4990765;28;20488;-71
2023/03/01 01:20:06;;;;;;;12.17;5.93;;;;;;;-4.75;100.00;102064.44;4991614;28;20119;-71
2023/03/01 01:22:31;;;;;;;14.83;6.27;;;;;;;-4.69;100.00;102066.59;4991004;28;20692;-71
2023/03/01 01:24:56;;;;;;;13.47;5.43;;;;;;;-4.68;100.00;102064.16;4993526;28;20034;-71
2023/03/01 01:27:22;;;;;;;14.67;5.70;;;;;;;-4.67;100.00;102063.34;4992623;28;20034;-72
2023/03/01 01:29:47;;;;;;;14.37;5.10;;;;;;;-4.67;100.00;102059.88;4991297;28;20042;-71
2023/03/01 01:32:13;;;;;;;13.37;5.63;;;;;;;-4.69;100.00;102057.22;4991233;28;20038;-71
2023/03/01 01:34:38;;;;;;;11.70;5.13;;;;;;;-4.76;100.00;102051.44;4998543;28;20037;-71
2023/03/01 01:37:07;;;;;;;13.67;4.57;;;;;;;-4.85;100.00;102044.78;4992594;28;20025;-71
2023/03/01 01:39:33;;;;;;;10.43;6.03;;;;;;;-4.88;100.00;102041.06;4986852;28;20034;-71
2023/03/01 01:42:00;;;;;;;13.13;4.67;;;;;;;-4.92;100.00;102042.50;4992093;28;20050;-71
2023/03/01 01:44:28;;;;;;;12.00;5.40;;;;;;;-4.93;100.00;102035.53;4992005;28;20041;-71
2023/03/01 01:47:05;;;;;;;13.60;6.30;;;;;;;-4.90;100.00;102028.06;4991772;28;20081;-71
2023/03/01 01:49:54;;;;;;;8.60;4.17;;;;;;;-4.95;100.00;102041.31;4991632;28;20038;-71
2023/03/01 01:52:26;;;;;;;14.73;5.10;;;;;;;-5.01;100.00;102039.16;4989984;28;20524;-71
2023/03/01 01:55:14;;;;;;;13.82;5.80;;;;;;;-4.99;100.00;102039.31;4993520;28;20046;-71
2023/03/01 01:57:45;;;;;;;15.57;6.40;;;;;;;-5.00;100.00;102037.47;4992093;28;20104;-71
2023/03/01 02:00:18;;;;;;;12.50;6.17;;;;;;;-5.01;100.00;102034.00;4994315;28;20045;-71
2023/03/01 02:02:44;;;;;;;;;;;;;;;-5.00;100.00;102035.84;4992605;28;20041;-71
2023/03/01 02:05:17;;;;;;;11.63;5.87;;;;;;;-5.01;100.00;102035.69;4995744;28;19956;-71
2023/03/01 02:07:43;;;;;;;12.37;4.93;;;;;;;-5.02;100.00;102032.22;4995611;28;20045;-71
2023/03/01 02:10:09;;;;;;;13.57;5.37;;;;;;;-5.02;100.00;102027.09;4994116;28;20484;-71
2023/03/01 02:12:35;;;;;;;9.37;4.07;;;;;;;-5.01;100.00;102034.00;5001366;28;20050;-71
2023/03/01 02:15:01;;;;;;;13.87;5.27;;;;;;;-5.03;100.00;102030.44;4995602;28;20030;-71
2023/03/01 02:17:26;;;;;;;14.43;5.93;;;;;;;-5.03;100.00;102033.03;4994245;28;20042;-71
2023/03/01 02:20:20;;;;;;;10.13;4.27;;;;;;;-5.02;100.00;102027.09;4993924;28;20100;-71
2023/03/01 02:22:46;;;;;;;12.90;4.67;;;;;;;-5.07;100.00;102018.97;4993721;28;20124;-71
2023/03/01 02:25:19;;;;;;;11.67;4.90;;;;;;;-5.07;100.00;102020.66;4994174;28;20035;-71
2023/03/01 02:27:54;;;;;;;13.60;5.50;;;;;;;-5.10;100.00;102015.28;4993930;28;20038;-71
2023/03/01 02:30:21;;;;;;;13.67;5.17;;;;;;;-5.14;100.00;102013.22;5005655;28;20035;-71
2023/03/01 02:32:48;;;;;;;16.73;5.80;;;;;;;-5.21;100.00;102016.97;4993902;28;20038;-71
2023/03/01 02:35:15;;;;;;;11.17;5.57;;;;;;;-5.29;100.00;102016.34;4995245;28;20049;-71
2023/03/01 02:37:43;;;;;;;11.50;4.97;;;;;;;-5.31;100.00;102011.88;4993799;28;20036;-71
2023/03/01 02:40:13;;;;;;;14.80;5.50;;;;;;;-5.36;100.00;102018.31;4993570;28;20117;-71
2023/03/01 02:42:56;;;;;;;13.10;5.17;;;;;;;-5.35;100.00;102013.25;4995134;28;20038;-71
2023/03/01 02:45:23;;;;;;;11.43;4.97;;;;;;;-5.35;100.00;102015.84;4999997;28;20038;-71
2023/03/01 02:47:49;;;;;;;12.27;4.97;;;;;;;-5.37;100.00;102014.84;4994936;28;20038;-71
2023/03/01 02:50:35;;;;;;;10.87;4.40;;;;;;;-5.35;100.00;102008.13;4994648;28;20034;-71
2023/03/01 02:53:39;;;;;;;11.40;5.03;;;;;;;-5.38;100.00;102007.88;4987873;28;20089;-71
2023/03/01 02:56:04;;;;;;;9.20;5.10;;;;;;;-5.51;100.00;102011.13;5000177;28;20033;-71
2023/03/01 02:58:29;;;;;;;12.23;5.67;;;;;;;-5.60;100.00;102017.19;4993455;28;20034;-71
2023/03/01 03:00:56;;;;;;;15.47;6.80;;;;;;;-5.64;100.00;102015.13;4993160;28;20116;-71
2023/03/01 03:03:22;;;;;;;12.27;5.37;;;;;;;-5.73;100.00;102003.31;5003054;28;20034;-71
2023/03/01 03:05:48;;;;;;;18.20;6.87;;;;;;;-5.74;100.00;101998.97;5002243;28;20176;-71
2023/03/01 03:08:16;;;;;;;11.73;5.33;;;;;;;-5.68;100.00;101998.56;4994137;28;20042;-71
2023/03/01 03:10:45;;;;;;;13.53;6.00;;;;;;;-5.68;100.00;101997.69;4993058;28;20121;-71
2023/03/01 03:13:13;;;;;;;14.23;5.80;;;;;;;-5.71;100.00;102003.47;4993191;28;20048;-71
2023/03/01 03:15:39;;;;;;;12.00;5.40;;;;;;;-5.68;100.00;102006.28;4991103;28;20035;-71
2023/03/01 03:18:09;;;;;;;12.70;5.03;;;;;;;-5.65;100.00;102003.06;4993118;28;20432;-71
2023/03/01 03:20:37;;;;;;;13.40;6.23;;;;;;;-5.62;100.00;102000.75;4994409;28;20038;-71
2023/03/01 03:23:03;;;;;;;13.60;5.00;;;;;;;-5.59;100.00;102011.28;4994288;28;20034;-71
2023/03/01 03:25:29;;;;;;;13.97;5.40;;;;;;;-5.57;100.00;102002.00;4994016;28;20117;-71
2023/03/01 03:27:56;;;;;;;11.47;5.27;;;;;;;-5.53;100.00;101998.91;5016732;23;20045;-77
2023/03/01 03:30:27;;;;;;;11.20;4.37;;;;;;;-5.48;100.00;102004.44;4993980;28;20038;-76
2023/03/01 03:32:53;;;;;;;10.50;5.00;;;;;;;-5.47;100.00;101999.44;4994659;28;20038;-77
2023/03/01 03:35:22;;;;;;;8.17;4.30;;;;;;;-5.44;100.00;101993.63;4994921;28;20073;-77
2023/03/01 03:38:03;;;;;;;10.80;5.83;;;;;;;-5.47;100.00;101995.97;4994594;28;20038;-77
2023/03/01 03:40:31;;;;;;;11.13;4.80;;;;;;;-5.50;100.00;101999.19;4992569;28;20030;-76
2023/03/01 03:42:57;;;;;;;14.93;5.63;;;;;;;-5.62;100.00;102004.19;4994529;28;20026;-77
2023/03/01 03:45:22;;;;;;;14.90;5.53;;;;;;;-5.66;100.00;101993.53;4992290;28;20038;-76
2023/03/01 03:47:47;;;;;;;15.80;6.10;;;;;;;-5.63;100.00;101991.19;4993645;28;20099;-76
2023/03/01 03:50:15;;;;;;;13.43;6.00;;;;;;;-5.57;100.00;101989.16;4992341;28;20045;-77
2023/03/01 03:52:40;;;;;;;14.20;5.20;;;;;;;-5.56;100.00;101988.38;4994196;28;20404;-76
2023/03/01 03:55:10;;;;;;;13.30;5.53;;;;;;;-5.60;100.00;101986.34;4994189;28;20042;-77
2023/03/01 03:57:51;;;;;;;15.30;5.53;;;;;;;-5.64;100.00;101984.28;4993020;28;20052;-77
2023/03/01 04:00:18;;;;;;;13.33;5.03;;;;;;;-5.66;100.00;101988.38;4993764;28;20381;-77
2023/03/01 04:02:44;;;;;;;16.10;5.67;;;;;;;-5.75;100.00;101992.00;4993957;28;20026;-77
2023/03/01 04:05:11;;;;;;;12.23;5.47;;;;;;;-5.83;100.00;101994.72;4994160;28;20050;-77
2023/03/01 04:07:37;;;;;;;13.77;5.67;;;;;;;-5.86;100.00;101992.78;4994475;28;20485;-77
2023/03/01 04:10:09;;;;;;;11.90;4.57;;;;;;;-5.79;100.00;101994.19;4993990;28;20049;-77
2023/03/01 04:12:34;;;;;;;11.15;4.63;;;;;;;-5.75;100.00;101989.44;4989464;28;20034;-77
2023/03/01 04:15:00;;;;;;;14.77;5.80;;;;;;;-5.69;100.00;101989.03;4993260;28;20522;-76
2023/03/01 04:17:26;;;;;;;13.70;5.77;;;;;;;-5.70;100.00;101992.38;4992978;28;20104;-77
2023/03/01 04:19:51;;;;;;;11.13;4.83;;;;;;;-5.72;100.00;101989.69;4990662;28;20493;-77
2023/03/01 04:22:17;;;;;;;13.33;5.50;;;;;;;-5.70;100.00;101987.25;4992179;28;20034;-76
2023/03/01 04:24:43;;;;;;;17.67;6.87;;;;;;;-5.67;100.00;101987.50;4993083;28;20174;-77
2023/03/01 04:27:08;;;;;;;22.90;8.97;;;;;;;-5.66;100.00;101988.38;4993306;28;20121;-77
2023/03/01 04:29:33;;;;;;;15.50;6.07;;;;;;;-5.64;100.00;101990.31;4993278;28;20121;-77
2023/03/01 04:31:59;;;;;;;13.97;6.33;;;;;;;-5.67;100.00;101989.16;4993525;28;20508;-77
2023/03/01 04:34:26;;;;;;;14.00;5.60;;;;;;;-5.72;100.00;101997.38;4993510;28;20054;-77
2023/03/01 04:36:52;;;;;;;13.13;5.20;;;;;;;-5.76;100.00;101991.91;4993033;28;20042;-77
2023/03/01 04:39:17;;;;;;;15.73;5.80;;;;;;;-5.78;100.00;101991.75;4992543;28;20045;-76
2023/03/01 04:41:43;;;;;;;14.30;5.80;;;;;;;-5.82;100.00;101989.69;5003184;28;20117;-77
2023/03/01 04:44:09;;;;;;;13.67;5.90;;;;;;;-5.85;100.00;101993.69;4992658;28;20198;-77
2023/03/01 04:46:34;;;;;;;13.07;5.80;;;;;;;-5.85;100.00;101999.72;4993803;28;20037;-77
2023/03/01 04:49:00;;;;;;;15.37;6.03;;;;;;;-5.95;100.00;101992.06;4997757;28;20113;-77
2023/03/01 04:51:25;;;;;;;9.93;5.37;;;;;;;-6.05;100.00;101989.47;4992682;28;20030;-77
2023/03/01 04:53:51;;;;;;;15.70;6.13;;;;;;;-6.11;100.00;101988.97;4993083;28;20121;-77
2023/03/01 04:56:17;;;;;;;11.73;5.17;;;;;;;-6.05;100.00;101994.63;4992930;28;20065;-77
2023/03/01 04:58:43;;;;;;;11.43;6.07;;;;;;;-5.98;100.00;101981.50;4992252;28;20038;-77
2023/03/01 05:01:17;;;;;;;13.57;5.50;;;;;;;-5.93;100.00;101980.19;4992559;28;20485;-76
2023/03/01 05:03:44;;;;;;;11.77;5.27;;;;;;;-5.90;100.00;101976.97;4992673;28;20143;-77
2023/03/01 05:06:10;;;;;;;11.57;5.17;;;;;;;-5.94;100.00;101978.44;4988572;28;20041;-77
2023/03/01 05:08:36;;;;;;;14.87;5.13;;;;;;;-5.98;100.00;101979.84;4993985;28;20065;-77
2023/03/01 05:11:02;;;;;;;13.77;5.47;;;;;;;-6.02;100.00;101976.91;4994258;28;20049;-76
2023/03/01 05:13:29;;;;;;;12.70;5.47;;;;;;;-6.05;100.00;101980.13;4992564;28;20034;-77
2023/03/01 05:15:56;;;;;;;9.67;4.53;;;;;;;-6.04;100.00;101971.63;4993086;28;20041;-77
2023/03/01 05:18:25;;;;;;;18.67;6.10;;;;;;;-6.04;100.00;101970.72;4992120;28;20065;-77
2023/03/01 05:20:51;;;;;;;13.53;5.20;;;;;;;-6.07;100.00;101970.47;4992055;28;20038;-76
2023/03/01 05:23:18;;;;;;;16.50;6.53;;;;;;;-6.06;100.00;101969.69;4992112;28;20034;-76
2023/03/01 05:25:43;;;;;;;14.70;6.17;;;;;;;-6.06;100.00;101974.84;4989895;28;20041;-77
2023/03/01 05:28:12;;;;;;;14.10;5.17;;;;;;;-6.02;100.00;101969.19;4986236;28;20030;-77
2023/03/01 05:30:38;;;;;;;12.70;5.27;;;;;;;-6.02;100.00;101974.34;4995846;28;20034;-77
2023/03/01 05:33:04;;;;;;;18.73;6.83;;;;;;;-5.99;100.00;101975.47;4991659;28;20034;-76
2023/03/01 05:35:33;;;;;;;14.13;5.17;;;;;;;-5.95;100.00;101971.47;4991983;28;20052;-77
2023/03/01 05:37:58;;;;;;;15.03;6.23;;;;;;;-5.98;100.00;101981.50;4991875;28;20085;-76
2023/03/01 05:40:24;;;;;;;17.90;6.23;;;;;;;-5.96;100.00;101982.56;4993010;28;20062;-77
2023/03/01 05:42:56;;;;;;;22.27;6.50;;;;;;;-5.96;100.00;101982.56;4999262;28;20022;-77
2023/03/01 05:45:23;;;;;;;16.33;6.43;;;;;;;-5.97;100.00;101978.19;4996447;28;20042;-77
2023/03/01 05:47:50;;;;;;;19.13;6.37;;;;;;;-5.98;100.00;101991.81;4994385;28;20041;-77
2023/03/01 05:50:19;;;;;;;14.07;5.73;;;;;;;-6.00;100.00;101983.06;4991487;28;20034;-77
2023/03/01 05:52:49;;;;;;;15.67;5.87;;;;;;;-5.98;100.00;101989.22;4991610;28;20062;-77
2023/03/01 05:55:20;;;;;;;12.33;5.00;;;;;;;-5.97;100.00;101988.47;4987291;28;20045;-77
2023/03/01 05:57:45;;;;;;;12.47;5.33;;;;;;;-6.02;100.00;101985.50;4997834;28;20046;-77
2023/03/01 06:00:13;;;;;;;13.33;5.80;;;;;;;-5.99;100.00;101984.88;4997865;28;20169;-77
2023/03/01 06:02:38;;;;;;;15.43;6.10;;;;;;;-5.99;100.00;101984.88;4996991;28;20042;-77
2023/03/01 06:05:06;;;;;;;17.53;7.87;;;;;;;-5.97;100.00;101989.38;4992709;28;20063;-77
2023/03/01 06:07:31;;;;;;;12.97;5.90;;;;;;;-5.94;100.00;101988.72;4994125;28;20465;-76
2023/03/01 06:09:57;;;;;;;17.87;6.33;;;;;;;-5.92;100.00;101989.72;4991602;28;20040;-76
2023/03/01 06:12:22;;;;;;;10.93;5.47;;;;;;;-5.88;100.00;101996.00;4991912;28;20041;-77
2023/03/01 06:14:47;;;;;;;12.90;5.60;;;;;;;-5.87;100.00;101990.97;4991994;28;20121;-77
2023/03/01 06:17:13;;;;;;;14.63;5.30;;;;;;;-5.81;100.00;101996.66;4992096;28;20125;-76
2023/03/01 06:19:38;;;;;;;11.63;5.17;;;;;;;-5.74;100.00;101995.47;4991879;28;20092;-76
2023/03/01 06:22:04;;;;;;;13.23;6.03;;;;;;;-5.67;100.00;101991.75;4992020;28;20034;-77
2023/03/01 06:24:29;;;;;;;13.87;5.53;;;;;;;-5.60;100.00;101992.38;4992245;28;20027;-77
2023/03/01 06:26:55;;;;;;;16.90;6.23;;;;;;;-5.51;100.00;101994.78;4991812;28;20100;-77
2023/03/01 06:29:22;;;;;;;10.97;5.93;;;;;;;-5.42;100.00;101995.56;4991659;28;20038;-77
2023/03/01 06:31:47;;;;;;;16.13;6.20;;;;;;;-5.36;100.00;101998.63;4991900;28;20050;-76
2023/03/01 06:34:13;;;;;;;14.83;6.17;;;;;;;-5.31;100.00;101999.88;4991826;28;20411;-77
2023/03/01 06:36:39;;;;;;;13.67;5.87;;;;;;;-5.29;100.00;101995.78;4991175;28;20038;-77
2023/03/01 06:39:05;;;;;;;11.07;5.77;;;;;;;-5.21;100.00;101992.88;4995685;28;20361;-77
2023/03/01 06:41:30;;;;;;;10.37;4.83;;;;;;;-5.12;100.00;101991.06;5000974;28;20037;-76
2023/03/01 06:43:56;;;;;;;15.20;5.73;;;;;;;-5.05;100.00;101985.66;4995547;28;20105;-77
2023/03/01 06:46:21;;;;;;;12.70;4.53;;;;;;;-4.99;100.00;101988.69;4995403;28;20038;-77
2023/03/01 06:48:47;;;;;;;12.93;4.57;;;;;;;-4.95;100.00;101987.25;5002255;28;20073;-77
2023/03/01 06:51:12;;;;;;;14.10;5.23;;;;;;;-4.93;100.00;101985.72;4995220;28;20042;-76
2023/03/01 06:53:37;;;;;;;12.37;4.93;;;;;;;-4.92;100.00;101972.97;4993652;28;20044;-77
2023/03/01 06:56:03;;;;;;;15.70;5.33;;;;;;;-4.85;100.00;101976.91;4994826;28;20034;-77
2023/03/01 06:58:28;;;;;;;12.40;5.20;;;;;;;-4.76;100.00;101972.50;4995068;28;20121;-77
2023/03/01 07:00:53;;;;;;;15.60;5.90;;;;;;;-4.67;100.00;101970.63;4997456;28;20439;-77
2023/03/01 07:03:19;;;;;;;13.03;5.30;;;;;;;-4.54;100.00;101975.06;4995790;28;20496;-77
2023/03/01 07:05:44;;;;;;;13.37;6.10;;;;;;;-4.46;100.00;101971.38;4995568;28;20523;-76
2023/03/01 07:08:10;;;;;;;12.80;5.57;;;;;;;-4.36;100.00;101974.69;4995819;28;20046;-77
2023/03/01 07:10:36;;;;;;;13.47;5.47;;;;;;;-4.25;100.00;101976.41;4994846;28;20057;-77
2023/03/01 07:13:02;;;;;;;17.77;5.87;;;;;;;-4.16;100.00;101971.06;4996073;28;20050;-77
2023/03/01 07:15:27;;;;;;;14.23;6.43;;;;;;;-4.09;100.00;101974.19;4996363;28;20121;-77
2023/03/01 07:17:52;;;;;;;15.37;5.37;;;;;;;-4.02;100.00;101973.88;4996148;28;20529;-77
2023/03/01 07:20:19;;;;;;;12.23;5.63;;;;;;;-3.99;100.00;101966.38;4995984;28;20049;-77
2023/03/01 07:22:44;;;;;;;19.20;6.43;;;;;;;-3.87;100.00;101965.53;4996347;28;20030;-77
2023/03/01 07:25:10;;;;;;;16.97;6.90;;;;;;;-3.77;100.00;101970.59;4996133;28;20041;-77
2023/03/01 07:27:36;;;;;;;14.57;6.70;;;;;;;-3.69;100.00;101966.88;4996046;28;20062;-77
2023/03/01 07:30:03;;;;;;;16.50;7.27;;;;;;;-3.61;100.00;101970.94;4995313;28;20053;-77
2023/03/01 07:32:28;;;;;;;17.83;7.23;;;;;;;-3.50;100.00;101957.91;4995150;28;20121;-77
2023/03/01 07:34:53;;;;;;;15.27;6.93;;;;;;;-3.44;100.00;101954.09;4997916;28;20132;-77
2023/03/01 07:37:18;;;;;;;16.03;6.43;;;;;;;-3.32;100.00;101949.81;5000793;28;20121;-77
2023/03/01 07:39:44;;;;;;;16.70;6.90;;;;;;;-3.20;100.00;101954.06;5000699;28;20073;-77
2023/03/01 07:42:09;;;;;;;13.60;6.93;;;;;;;-3.10;100.00;101946.19;4995614;28;20073;-77
2023/03/01 07:44:34;;;;;;;16.57;7.73;;;;;;;-2.99;100.00;101944.38;4995924;28;20038;-76
2023/03/01 07:47:00;;;;;;;12.73;6.33;;;;;;;-2.87;100.00;101946.13;4996443;28;20150;-77
2023/03/01 07:49:26;;;;;;;17.57;6.77;;;;;;;-2.77;100.00;101942.53;4995056;28;20034;-76
2023/03/01 07:51:52;;;;;;;16.23;7.40;;;;;;;-2.69;100.00;101943.06;4993543;28;20038;-77
2023/03/01 07:54:17;;;;;;;13.67;7.03;;;;;;;-2.65;100.00;101957.97;5000428;28;20049;-77
2023/03/01 07:56:43;;;;;;;16.73;8.30;;;;;;;-2.53;100.00;101947.59;4997454;28;20035;-76
2023/03/01 07:59:09;;;;;;;17.93;6.87;;;;;;;-2.44;100.00;101949.16;4995064;28;20041;-76
2023/03/01 08:01:34;;;;;;;15.17;7.37;;;;;;;-2.33;100.00;101946.38;4995384;28;20049;-77
2023/03/01 08:03:59;;;;;;;19.67;7.20;;;;;;;-2.29;100.00;101946.69;4995175;28;20037;-77
2023/03/01 08:06:25;;;;;;;16.13;8.03;;;;;;;-2.24;100.00;101950.50;4993851;28;20125;-76
2023/03/01 08:08:50;;;;;;;16.83;7.60;;;;;;;-2.20;100.00;101954.22;4994792;28;20034;-77
2023/03/01 08:11:16;;;;;;;19.67;8.27;;;;;;;-2.17;100.00;101959.59;4995455;28;20038;-77
2023/03/01 08:13:42;;;;;;;17.13;7.67;;;;;;;-2.13;100.00;101961.56;4996349;28;20041;-77
2023/03/01 08:16:11;;;;;;;17.80;8.17;;;;;;;-2.04;100.00;101956.13;4995630;28;20045;-77
2023/03/01 08:18:36;;;;;;;38.47;12.73;;;;;;;-1.93;100.00;101955.16;4994689;28;20031;-77
2023/03/01 08:21:23;;;;;;;28.67;13.30;;;;;;;-1.73;100.00;101960.75;4994093;28;20049;-77
2023/03/01 08:23:48;;;;;;;34.10;14.33;;;;;;;-1.61;100.00;101952.09;4992771;28;20047;-77
2023/03/01 08:26:19;;;;;;;29.57;12.97;;;;;;;-1.48;100.00;101951.22;4995003;28;20034;-77
2023/03/01 08:28:45;;;;;;;35.63;15.33;;;;;;;-1.41;100.00;101943.06;4995528;28;20046;-77
2023/03/01 08:31:18;;;;;;;25.70;13.30;;;;;;;-1.29;100.00;101939.47;4994220;28;20042;-77
2023/03/01 08:33:50;;;;;;;23.87;10.73;;;;;;;-1.20;100.00;101940.06;5000354;28;20045;-77
2023/03/01 08:36:15;;;;;;;22.43;9.07;;;;;;;-1.13;100.00;101939.63;4994896;28;20085;-77
2023/03/01 08:38:41;;;;;;;17.27;9.27;;;;;;;-1.04;100.00;101939.34;4994799;28;20050;-77
2023/03/01 08:41:06;;;;;;;18.80;8.50;;;;;;;-0.94;100.00;101931.34;4993865;28;20061;-77
2023/03/01 08:43:31;;;;;;;18.83;8.40;;;;;;;-0.90;100.00;101939.38;4995086;28;20125;-77
2023/03/01 08:45:57;;;;;;;23.87;10.37;;;;;;;-0.86;100.00;101939.56;4994666;28;20042;-77
2023/03/01 08:48:22;;;;;;;21.47;10.13;;;;;;;-0.79;100.00;101931.38;4995211;28;20184;-77
2023/03/01 08:50:47;;;;;;;21.50;9.13;;;;;;;-0.72;100.00;101925.78;4995202;28;20038;-77
2023/03/01 08:53:13;;;;;;;22.90;10.57;;;;;;;-0.62;100.00;101933.34;4993937;28;20046;-77
2023/03/01 08:55:38;;;;;;;25.00;10.77;;;;;;;-0.50;100.00;101925.41;4995655;28;20100;-77
2023/03/01 08:58:04;;;;;;;30.47;12.90;;;;;;;-0.35;100.00;101917.66;4996547;28;20487;-77
2023/03/01 09:00:29;;;;;;;21.53;10.43;;;;;;;-0.22;100.00;101917.59;4995119;28;20615;-77
2023/03/01 09:02:54;;;;;;;26.10;10.53;;;;;;;-0.07;100.00;101912.41;4995733;28;20404;-77
2023/03/01 09:05:20;;;;;;;25.53;11.60;;;;;;;0.07;100.00;101905.44;4996753;28;20045;-77
2023/03/01 09:07:45;;;;;;;26.03;10.47;;;;;;;0.20;100.00;101908.81;4996536;28;20054;-77
2023/03/01 09:10:11;;;;;;;26.90;11.67;;;;;;;0.34;100.00;101901.84;4997069;28;20030;-77
2023/03/01 09:12:36;;;;;;;25.63;11.80;;;;;;;0.46;100.00;101905.94;4993816;28;20046;-77
2023/03/01 09:15:01;;;;;;;29.07;12.13;;;;;;;0.54;99.62;101896.88;5000063;28;20045;-77
2023/03/01 09:17:27;;;;;;;33.40;15.37;;;;;;;0.69;100.00;101897.72;5002272;28;20038;-77
2023/03/01 09:19:52;;;;;;;33.20;14.73;;;;;;;0.82;99.70;101892.41;5001498;28;20457;-77
2023/03/01 09:22:17;;;;;;;30.40;14.93;;;;;;;0.96;98.89;101895.75;5001376;28;20038;-77
2023/03/01 09:24:43;;;;;;;32.47;13.60;;;;;;;1.09;97.55;101894.72;4999009;28;20033;-77
2023/03/01 09:29:37;;;;;;;28.08;13.63;;;;;;;1.34;95.80;101888.22;4920275;29;20079;-74
2023/03/01 09:32:03;;;;;;;26.75;13.13;;;;;;;1.48;95.31;101885.53;4927684;29;20039;-74
2023/03/01 09:34:28;;;;;;;27.23;12.05;;;;;;;1.60;94.20;101893.09;4926898;29;20036;-74
2023/03/01 09:36:53;;;;;;;28.30;13.52;;;;;;;1.69;93.44;101875.34;4926227;29;20118;-74
2023/03/01 09:39:20;;;;;;;27.73;12.98;;;;;;;1.80;93.19;101880.19;4923186;29;20403;-73
2023/03/01 09:42:01;;;;;;;28.08;13.30;;;;;;;1.92;92.29;101880.84;4928261;29;20032;-73
2023/03/01 09:45:07;;;;;;;27.85;12.50;;;;;;;2.01;91.13;101876.06;4926345;29;20039;-75
2023/03/01 09:47:36;;;;;;;24.08;12.02;;;;;;;2.09;89.64;101873.84;4915458;29;20574;-75
2023/03/01 09:50:14;;;;;;;26.02;11.93;;;;;;;2.18;89.36;101875.22;4926088;29;20040;-75
2023/03/01 09:52:50;;;;;;;28.77;11.63;;;;;;;2.29;87.71;101872.25;4922311;29;20046;-75
2023/03/01 09:55:22;;;;;;;28.55;12.90;;;;;;;2.35;87.50;101877.75;4925433;29;20040;-75
2023/03/01 09:57:47;;;;;;;26.80;12.65;;;;;;;2.41;86.86;101876.34;4927837;29;20467;-75
2023/03/01 10:00:23;;;;;;;25.52;12.07;;;;;;;2.55;85.94;101871.78;4925752;29;20118;-75
2023/03/01 10:02:59;;;;;;;10.52;6.90;;;;;;;2.64;86.04;101880.03;4925454;29;20037;-75
2023/03/01 10:05:49;;;;;;;91.90;27.13;;;;;;;2.76;84.26;101871.91;4923132;29;20040;-75
2023/03/01 10:08:26;;;;;;;126.15;115.13;;;;;;;2.88;84.25;101871.56;4924867;29;20067;-75
2023/03/01 10:10:53;;;;;;;0.20;0.20;;;;;;;2.99;83.96;101877.31;4922513;29;20051;-76
2023/03/01 10:13:45;;;;;;;0.30;0.30;;;;;;;3.07;82.54;101871.63;4925225;29;20114;-75
2023/03/01 10:16:16;;;;;;;0.20;0.20;;;;;;;3.20;82.94;101872.19;4925703;29;20082;-75
2023/03/01 10:18:45;;;;;;;0.20;0.20;;;;;;;3.28;81.51;101868.19;4917313;29;20036;-75
2023/03/01 10:21:17;;;;;;;0.20;0.20;;;;;;;3.42;81.60;101867.06;4929149;29;20043;-76
2023/03/01 10:23:43;;;;;;;0.20;0.20;;;;;;;3.51;79.81;101856.13;4924702;29;20500;-76
2023/03/01 10:26:14;;;;;;;0.30;0.30;;;;;;;3.57;77.27;101853.81;4933100;29;20036;-76
2023/03/01 10:29:09;;;;;;;0.20;0.20;;;;;;;3.67;76.61;101848.16;4928884;29;20442;-75
2023/03/01 10:31:54;;;;;;;0.20;0.20;;;;;;;3.68;72.55;101843.84;4926400;29;20032;-75
2023/03/01 10:34:35;;;;;;;0.20;0.20;;;;;;;3.64;70.51;101841.91;4928887;29;20052;-75
2023/03/01 10:37:20;;;;;;;0.20;0.20;;;;;;;3.73;73.52;101839.69;4928473;29;20044;-75
2023/03/01 10:39:57;;;;;;;0.20;0.20;;;;;;;3.80;69.98;101836.53;4932808;29;20066;-75
2023/03/01 10:42:32;;;;;;;0.22;0.22;;;;;;;3.88;68.57;101832.53;4927275;29;20039;-75
2023/03/01 10:44:57;;;;;;;0.20;0.20;;;;;;;3.93;67.15;101835.34;4933162;29;20039;-75
2023/03/01 10:47:26;;;;;;;0.20;0.20;;;;;;;4.05;67.56;101830.59;4926683;29;20039;-75
2023/03/01 10:50:00;;;;;;;0.30;0.30;;;;;;;4.06;66.96;101827.16;4929340;29;20663;-76
2023/03/01 10:52:40;;;;;;;0.20;0.20;;;;;;;4.24;68.85;101833.94;4925483;29;20086;-75
2023/03/01 10:55:25;;;;;;;0.20;0.20;;;;;;;4.28;65.63;101836.75;4930155;29;20055;-75
2023/03/01 10:58:07;;;;;;;0.20;0.20;;;;;;;4.40;64.50;101825.88;4910323;29;20044;-76
2023/03/01 11:00:32;;;;;;;0.20;0.20;;;;;;;4.42;65.08;101832.06;4915559;29;20466;-76
2023/03/01 11:02:58;;;;;;;0.17;0.17;;;;;;;4.37;61.56;101826.66;4925420;29;20078;-76
2023/03/01 11:05:25;;;;;;;0.20;0.20;;;;;;;4.40;62.26;101836.34;4928594;29;20114;-76
2023/03/01 11:07:56;;;;;;;0.20;0.20;;;;;;;4.49;63.04;101828.88;4928302;29;20510;-75
2023/03/01 11:10:33;;;;;;;0.20;0.20;;;;;;;4.56;61.71;101830.91;4927461;29;20131;-76
2023/03/01 11:13:16;;;;;;;0.20;0.20;;;;;;;4.69;60.46;101840.13;4931856;29;20039;-76
2023/03/01 11:15:42;;;;;;;0.30;0.30;;;;;;;4.76;61.52;101838.63;4929084;29;20516;-76
2023/03/01 11:18:21;;;;;;;0.20;0.20;;;;;;;4.88;60.41;101828.63;4927620;29;20040;-75
2023/03/01 11:20:48;;;;;;;0.20;0.20;;;;;;;4.83;58.82;101820.59;4923694;29;20078;-76